createdAt,value
2017-10-01T00:00:03.244Z,0
2017-10-01T00:05:02.637Z,0
2017-10-01T00:10:03.121Z,0
2017-10-01T00:15:02.615Z,0
2017-10-01T00:20:03.097Z,0
2017-10-01T00:25:02.564Z,0
2017-10-01T00:30:03.103Z,0
2017-10-01T00:35:02.616Z,0
2017-10-01T00:40:03.091Z,0
2017-10-01T00:45:03.439Z,0
2017-10-01T00:50:03.038Z,0
2017-10-01T00:55:02.530Z,0
2017-10-01T01:00:03.012Z,0
2017-10-01T01:05:03.390Z,0
2017-10-01T01:10:02.963Z,0
2017-10-01T01:15:03.485Z,0
2017-10-01T01:20:02.875Z,0
2017-10-01T01:25:03.310Z,0
2017-10-01T01:30:02.868Z,0
2017-10-01T01:35:03.404Z,0
2017-10-01T01:40:02.833Z,0
2017-10-01T01:45:03.405Z,0
2017-10-01T01:50:02.807Z,0
2017-10-01T01:55:03.214Z,0
2017-10-01T02:00:02.656Z,0
2017-10-01T02:05:03.195Z,0
2017-10-01T02:10:02.733Z,0
2017-10-01T02:15:03.214Z,0
2017-10-01T02:20:02.584Z,0
2017-10-01T02:25:03.020Z,0
2017-10-01T02:30:03.567Z,0
2017-10-01T02:35:02.973Z,0
2017-10-01T02:40:02.585Z,0
2017-10-01T02:45:03.037Z,0
2017-10-01T02:50:02.614Z,0
2017-10-01T02:55:03.026Z,0
2017-10-01T03:00:03.465Z,0
2017-10-01T03:05:02.876Z,0
2017-10-01T03:10:03.453Z,0
2017-10-01T03:15:03.026Z,0
2017-10-01T03:20:02.649Z,0
2017-10-01T03:25:03.017Z,0
2017-10-01T03:30:03.545Z,0
2017-10-01T03:35:03.138Z,0
2017-10-01T03:40:02.638Z,0
2017-10-01T03:45:03.215Z,0
2017-10-01T03:50:02.666Z,0
2017-10-01T03:55:03.216Z,0
2017-10-01T04:00:02.878Z,0
2017-10-01T04:05:03.463Z,0
2017-10-01T04:10:02.838Z,0
2017-10-01T04:15:03.215Z,0
2017-10-01T04:20:02.760Z,0
2017-10-01T04:25:03.361Z,0
2017-10-01T04:30:03.377Z,0
2017-10-01T04:35:02.968Z,0
2017-10-01T04:40:03.382Z,0
2017-10-01T04:45:02.822Z,0
2017-10-01T04:50:03.237Z,0
2017-10-01T04:55:02.596Z,0
2017-10-01T05:00:03.136Z,0
2017-10-01T05:05:02.571Z,0
2017-10-01T05:10:03.182Z,0
2017-10-01T05:15:03.554Z,0
2017-10-01T05:20:02.958Z,0
2017-10-01T05:25:03.420Z,0
2017-10-01T05:30:02.803Z,0
2017-10-01T05:35:03.316Z,0
2017-10-01T05:40:02.764Z,0
2017-10-01T05:45:03.246Z,0
2017-10-01T05:50:02.685Z,0
2017-10-01T05:55:03.110Z,0
2017-10-01T06:00:03.482Z,0
2017-10-01T06:05:03.087Z,0
2017-10-01T06:10:02.672Z,0
2017-10-01T06:15:03.028Z,0
2017-10-01T06:20:03.548Z,0
2017-10-01T06:25:03.107Z,0
2017-10-01T06:30:03.454Z,0
2017-10-01T06:35:02.850Z,0
2017-10-01T06:40:03.345Z,0
2017-10-01T06:45:02.858Z,0
2017-10-01T06:50:03.292Z,0
2017-10-01T06:55:02.739Z,0
2017-10-01T07:00:03.193Z,0
2017-10-01T07:05:02.633Z,0
2017-10-01T07:10:03.140Z,0
2017-10-01T07:15:02.611Z,0
2017-10-01T07:20:03.183Z,0
2017-10-01T07:25:02.596Z,2
2017-10-01T07:30:03.076Z,0
2017-10-01T07:35:02.566Z,0
2017-10-01T07:40:03.182Z,0
2017-10-01T07:45:02.649Z,0
2017-10-01T07:50:03.191Z,0
2017-10-01T07:55:02.663Z,0
2017-10-01T08:00:03.143Z,0
2017-10-01T08:05:02.691Z,0
2017-10-01T08:10:03.279Z,0
2017-10-01T08:15:02.734Z,0
2017-10-01T08:20:03.324Z,0
2017-10-01T08:25:02.759Z,0
2017-10-01T08:30:03.345Z,0
2017-10-01T08:35:02.767Z,0
2017-10-01T08:40:03.417Z,0
2017-10-01T08:45:02.778Z,0
2017-10-01T08:50:03.272Z,0
2017-10-01T08:55:02.647Z,0
2017-10-01T09:00:03.080Z,0
2017-10-01T09:05:03.533Z,0
2017-10-01T09:10:03.053Z,0
2017-10-01T09:15:03.499Z,0
2017-10-01T09:20:03.034Z,0
2017-10-01T09:25:02.587Z,1
2017-10-01T09:30:03.142Z,1
2017-10-01T09:35:03.524Z,3
2017-10-01T09:40:02.974Z,2
2017-10-01T09:45:03.493Z,0
2017-10-01T09:50:02.994Z,2
2017-10-01T09:55:03.499Z,2
2017-10-01T10:00:02.928Z,2
2017-10-01T10:05:03.416Z,3
2017-10-01T10:10:02.978Z,2
2017-10-01T10:15:03.515Z,0
2017-10-01T10:20:03.101Z,0
2017-10-01T10:25:02.617Z,0
2017-10-01T10:30:03.028Z,1
2017-10-01T10:35:03.483Z,4
2017-10-01T10:40:03.031Z,2
2017-10-01T10:45:03.546Z,0
2017-10-01T10:50:03.069Z,1
2017-10-01T10:55:03.833Z,4
2017-10-01T11:00:03.426Z,0
2017-10-01T11:05:02.833Z,5
2017-10-01T11:10:03.382Z,3
2017-10-01T11:15:02.777Z,0
2017-10-01T11:20:03.221Z,5
2017-10-01T11:25:02.689Z,8
2017-10-01T11:30:03.252Z,5
2017-10-01T11:35:02.739Z,3
2017-10-01T11:40:03.215Z,8
2017-10-01T11:45:02.735Z,7
2017-10-01T11:50:03.266Z,6
2017-10-01T11:55:02.843Z,7
2017-10-01T12:00:03.298Z,5
2017-10-01T12:05:02.811Z,3
2017-10-01T12:10:03.390Z,5
2017-10-01T12:15:02.978Z,5
2017-10-01T12:20:03.485Z,0
2017-10-01T12:25:02.997Z,3
2017-10-01T12:30:03.403Z,5
2017-10-01T12:35:03.002Z,2
2017-10-01T12:40:03.447Z,1
2017-10-01T12:45:03.006Z,2
2017-10-01T12:50:02.612Z,3
2017-10-01T12:55:03.096Z,6
2017-10-01T13:00:02.606Z,4
2017-10-01T13:05:02.999Z,3
2017-10-01T13:10:03.498Z,4
2017-10-01T13:15:02.964Z,4
2017-10-01T13:20:03.544Z,2
2017-10-01T13:25:03.025Z,3
2017-10-01T13:30:03.601Z,2
2017-10-01T13:35:03.129Z,3
2017-10-01T13:40:02.622Z,4
2017-10-01T13:45:03.246Z,4
2017-10-01T13:50:02.712Z,4
2017-10-01T13:55:03.166Z,3
2017-10-01T14:00:02.643Z,4
2017-10-01T14:05:03.151Z,3
2017-10-01T14:10:02.704Z,7
2017-10-01T14:15:03.254Z,6
2017-10-01T14:20:02.736Z,7
2017-10-01T14:25:03.213Z,2
2017-10-01T14:30:02.618Z,6
2017-10-01T14:35:03.093Z,1
2017-10-01T14:40:02.573Z,3
2017-10-01T14:45:03.114Z,3
2017-10-01T14:50:03.502Z,5
2017-10-01T14:55:02.913Z,5
2017-10-01T15:00:03.352Z,4
2017-10-01T15:05:02.762Z,7
2017-10-01T15:10:03.279Z,3
2017-10-01T15:15:02.687Z,2
2017-10-01T15:20:03.180Z,5
2017-10-01T15:25:02.656Z,3
2017-10-01T15:30:03.175Z,4
2017-10-01T15:35:02.679Z,8
2017-10-01T15:40:03.228Z,7
2017-10-01T15:45:02.686Z,6
2017-10-01T15:50:03.202Z,2
2017-10-01T15:55:02.627Z,3
2017-10-01T16:00:03.033Z,2
2017-10-01T16:05:02.626Z,1
2017-10-01T16:10:03.146Z,1
2017-10-01T16:15:02.629Z,2
2017-10-01T16:20:03.071Z,3
2017-10-01T16:25:03.466Z,4
2017-10-01T16:30:03.019Z,1
2017-10-01T16:35:03.568Z,1
2017-10-01T16:40:03.027Z,1
2017-10-01T16:45:03.509Z,1
2017-10-01T16:50:03.064Z,3
2017-10-01T16:55:03.485Z,4
2017-10-01T17:00:03.133Z,1
2017-10-01T17:10:03.564Z,4
2017-10-01T17:15:03.068Z,3
2017-10-01T17:20:03.507Z,3
2017-10-01T17:25:02.929Z,2
2017-10-01T17:30:03.352Z,2
2017-10-01T17:50:02.729Z,2
2017-10-01T17:55:03.270Z,6
2017-10-01T18:00:02.683Z,3
2017-10-01T18:05:03.124Z,3
2017-10-01T18:10:02.650Z,5
2017-10-01T18:15:03.129Z,5
2017-10-01T18:20:02.598Z,5
2017-10-01T18:25:03.013Z,2
2017-10-01T18:30:03.481Z,3
2017-10-01T18:35:03.070Z,2
2017-10-01T18:45:03.285Z,2
2017-10-01T18:50:02.727Z,2
2017-10-01T18:55:03.204Z,3
2017-10-01T19:05:03.246Z,2
2017-10-01T19:10:02.751Z,2
2017-10-01T19:15:03.218Z,4
2017-10-01T19:20:02.611Z,4
2017-10-01T19:25:03.100Z,3
2017-10-01T19:30:03.548Z,2
2017-10-01T19:50:02.870Z,2
2017-10-01T19:55:03.373Z,3
2017-10-01T20:00:02.787Z,6
2017-10-01T20:05:03.213Z,3
2017-10-01T20:10:02.733Z,3
2017-10-01T20:15:03.199Z,2
2017-10-01T20:20:02.705Z,3
2017-10-01T20:25:03.248Z,3
2017-10-01T20:30:02.750Z,2
2017-10-01T20:35:03.213Z,2
2017-10-01T20:40:02.687Z,2
2017-10-01T20:45:03.188Z,2
2017-10-01T20:50:02.723Z,3
2017-10-01T20:55:03.299Z,2
2017-10-01T21:00:02.735Z,5
2017-10-01T21:05:03.272Z,2
2017-10-01T21:10:02.727Z,3
2017-10-01T21:15:03.243Z,3
2017-10-01T21:20:02.741Z,6
2017-10-01T21:25:03.200Z,4
2017-10-01T21:30:02.679Z,3
2017-10-01T21:40:02.836Z,5
2017-10-01T21:45:03.298Z,4
2017-10-01T21:50:02.722Z,6
2017-10-01T21:55:03.273Z,7
2017-10-01T22:00:02.793Z,6
2017-10-01T22:05:03.195Z,3
2017-10-01T22:10:02.683Z,8
2017-10-01T22:15:03.268Z,5
2017-10-01T22:20:02.781Z,4
2017-10-01T22:25:03.312Z,7
2017-10-01T22:30:02.761Z,3
2017-10-01T22:35:03.322Z,6
2017-10-01T22:40:02.768Z,3
2017-10-01T22:45:03.164Z,7
2017-10-01T22:50:02.565Z,5
2017-10-01T22:55:03.053Z,4
2017-10-01T23:10:03.480Z,5
2017-10-01T23:25:03.211Z,5
2017-10-01T23:30:02.618Z,11
2017-10-01T23:35:03.178Z,11
2017-10-01T23:40:02.679Z,6
2017-10-01T23:45:03.223Z,7
2017-10-01T23:50:02.705Z,6
2017-10-01T23:55:03.213Z,7
